Time;durP1;ratioP1;P1;durP2;ratioP2;P2;SDS_P1;SDS_P2;PMS_P1;PMS_P2;Temp;Humidity;BMP_temperature;BMP_pressure;BME280_temperature;BME280_humidity;BME280_pressure;Samples;Min_cycle;Max_cycle;Signal;HPM_P1;HPM_P2
2021/08/15 00:01:13;;;;;;;17.27;7.30;;;;;;;26.62;41.60;100641.09;4452376;32;20133;-68
2021/08/15 00:03:39;;;;;;;16.85;7.22;;;;;;;26.85;41.41;100631.44;4452163;32;20048;-68
2021/08/15 00:06:05;;;;;;;15.05;7.37;;;;;;;26.65;41.67;100629.22;4451030;32;20468;-68
2021/08/15 00:08:31;;;;;;;17.02;7.68;;;;;;;26.50;42.03;100628.94;4450863;32;20092;-68
2021/08/15 00:11:01;;;;;;;13.32;7.25;;;;;;;26.53;42.00;100627.84;4448552;32;21513;-68
2021/08/15 00:13:27;;;;;;;14.80;7.18;;;;;;;26.39;42.04;100626.25;4450944;32;20609;-68
2021/08/15 00:15:54;;;;;;;14.85;7.57;;;;;;;26.37;42.32;100628.13;4435388;32;20088;-68
2021/08/15 00:18:21;;;;;;;14.05;6.82;;;;;;;26.22;42.55;100622.09;4452187;32;20071;-68
2021/08/15 00:20:48;;;;;;;13.38;6.87;;;;;;;26.33;42.26;100613.25;4453517;32;20056;-68
2021/08/15 00:23:14;;;;;;;15.43;7.12;;;;;;;26.47;42.10;100618.50;4451522;32;20140;-68
2021/08/15 00:25:39;;;;;;;14.02;6.12;;;;;;;26.12;42.51;100621.75;4448071;32;20026;-68
2021/08/15 00:28:05;;;;;;;12.25;6.20;;;;;;;26.18;42.24;100618.75;4447552;32;20080;-68
2021/08/15 00:30:32;;;;;;;13.10;6.20;;;;;;;26.41;41.82;100608.38;4448957;32;20051;-68
2021/08/15 00:32:58;;;;;;;15.23;6.18;;;;;;;26.37;41.82;100602.94;4452542;32;20051;-68
2021/08/15 00:35:23;;;;;;;11.68;6.07;;;;;;;26.47;41.55;100595.41;4446203;32;20081;-68
2021/08/15 00:37:49;;;;;;;13.25;6.18;;;;;;;26.39;41.70;100600.28;4447462;32;20037;-68
2021/08/15 00:40:15;;;;;;;11.68;5.62;;;;;;;26.36;41.60;100589.84;4454408;32;20085;-68
2021/08/15 00:42:41;;;;;;;13.82;6.57;;;;;;;26.43;41.52;100589.19;4448914;32;20333;-68
2021/08/15 00:45:08;;;;;;;16.17;6.20;;;;;;;26.19;41.84;100583.59;4451698;32;20059;-68
2021/08/15 00:47:34;;;;;;;15.10;6.60;;;;;;;26.34;41.85;100580.97;4449825;32;20032;-68
2021/08/15 00:50:01;;;;;;;14.70;6.50;;;;;;;26.16;42.09;100578.94;4450207;32;20093;-68
2021/08/15 00:52:27;;;;;;;17.92;6.50;;;;;;;26.24;42.00;100576.16;4450590;32;20500;-68
2021/08/15 00:54:55;;;;;;;15.55;6.05;;;;;;;26.19;42.06;100577.81;4450235;32;20088;-68
2021/08/15 00:57:25;;;;;;;15.07;6.90;;;;;;;26.32;41.91;100574.19;4436321;32;20649;-68
2021/08/15 00:59:50;;;;;;;15.93;6.65;;;;;;;26.34;41.94;100574.41;4450925;32;21054;-68
2021/08/15 01:02:16;;;;;;;15.20;6.97;;;;;;;26.05;42.14;100570.44;4452504;32;20059;-68
2021/08/15 01:04:42;;;;;;;15.43;6.62;;;;;;;26.18;42.17;100567.62;4450951;32;20073;-68
2021/08/15 01:07:08;;;;;;;14.23;6.78;;;;;;;26.33;41.81;100553.44;4448565;32;20132;-68
2021/08/15 01:09:34;;;;;;;12.98;6.85;;;;;;;26.30;41.87;100556.66;4447450;32;20051;-68
2021/08/15 01:12:01;;;;;;;16.45;6.70;;;;;;;26.25;41.93;100548.87;4447839;32;20046;-68
2021/08/15 01:14:29;;;;;;;15.15;6.97;;;;;;;26.28;41.79;100557.19;4450264;32;20033;-68
2021/08/15 01:16:54;;;;;;;17.40;7.55;;;;;;;26.23;41.97;100548.66;4449149;32;20583;-68
2021/08/15 01:19:28;;;;;;;15.63;7.47;;;;;;;26.18;42.08;100547.44;4449237;32;20054;-68
2021/08/15 01:21:53;;;;;;;14.65;7.78;;;;;;;26.15;42.25;100554.31;4451056;32;20375;-68
2021/08/15 01:24:19;;;;;;;15.25;7.35;;;;;;;25.88;42.55;100543.19;4436242;32;20041;-68
2021/08/15 01:26:46;;;;;;;18.02;8.63;;;;;;;26.01;42.42;100529.63;4454174;32;20089;-68
2021/08/15 01:29:15;;;;;;;17.33;8.07;;;;;;;26.22;42.08;100539.22;4450343;32;20085;-68
2021/08/15 01:31:40;;;;;;;17.40;7.78;;;;;;;26.14;42.11;100541.19;4449513;32;20021;-68
2021/08/15 01:34:06;;;;;;;18.33;8.13;;;;;;;26.05;42.27;100537.97;4450729;32;20053;-68
2021/08/15 01:36:32;;;;;;;22.05;8.52;;;;;;;26.00;42.44;100541.72;4453165;32;20511;-68
2021/08/15 01:38:57;;;;;;;19.75;7.93;;;;;;;26.12;43.12;100532.31;4445974;32;20119;-68
2021/08/15 01:41:24;;;;;;;16.80;9.20;;;;;;;26.11;43.21;100538.66;4448053;32;20073;-67
2021/08/15 01:43:59;;;;;;;17.05;7.90;;;;;;;25.97;44.32;100528.37;4449882;32;20060;-67
2021/08/15 01:46:30;;;;;;;19.08;7.85;;;;;;;25.94;44.86;100523.69;4448568;32;20041;-67
2021/08/15 01:48:56;;;;;;;19.25;9.23;;;;;;;25.78;44.70;100519.00;4451713;32;20016;-67
2021/08/15 01:51:22;;;;;;;19.30;8.70;;;;;;;25.63;45.08;100513.75;4451789;32;20190;-67
2021/08/15 01:53:50;;;;;;;15.05;8.13;;;;;;;25.54;45.33;100522.00;4448882;32;20540;-67
2021/08/15 01:56:16;;;;;;;16.83;8.55;;;;;;;25.67;44.99;100513.44;4447734;32;20095;-68
2021/08/15 01:58:42;;;;;;;15.77;8.52;;;;;;;25.48;45.39;100512.66;4452269;32;20460;-67
2021/08/15 02:01:08;;;;;;;18.70;8.90;;;;;;;25.50;45.52;100505.06;4450922;32;20127;-68
2021/08/15 02:03:37;;;;;;;15.93;7.97;;;;;;;25.50;45.73;100513.69;4452586;32;20072;-68
2021/08/15 02:06:04;;;;;;;22.90;8.68;;;;;;;25.67;45.12;100507.66;4452317;32;20080;-68
2021/08/15 02:08:30;;;;;;;16.75;8.85;;;;;;;25.68;45.65;100500.56;4451901;32;21114;-68
2021/08/15 02:10:56;;;;;;;17.42;9.30;;;;;;;25.54;45.51;100491.09;4452334;32;20390;-68
2021/08/15 02:13:21;;;;;;;20.00;8.50;;;;;;;25.61;45.48;100495.47;4454355;32;20115;-68
2021/08/15 02:15:47;;;;;;;19.10;8.43;;;;;;;25.72;45.41;100490.28;4451886;32;20033;-68
2021/08/15 02:18:13;;;;;;;17.23;9.38;;;;;;;25.71;45.38;100490.81;4451316;32;20385;-68
2021/08/15 02:20:39;;;;;;;20.90;8.70;;;;;;;25.61;46.20;100486.81;4451253;32;20345;-68
2021/08/15 02:23:08;;;;;;;18.30;8.32;;;;;;;25.68;45.83;100494.81;4454923;32;20037;-68
2021/08/15 02:25:34;;;;;;;21.37;9.35;;;;;;;25.59;46.08;100489.47;4454402;32;20044;-68
2021/08/15 02:27:59;;;;;;;22.60;8.88;;;;;;;25.51;45.87;100480.66;4454280;32;20029;-68
2021/08/15 02:30:25;;;;;;;17.10;8.48;;;;;;;25.60;45.85;100476.59;4450839;32;20084;-68
2021/08/15 02:32:52;;;;;;;16.87;9.80;;;;;;;25.54;46.53;100461.50;4451809;32;20072;-68
2021/08/15 02:35:19;;;;;;;22.02;8.48;;;;;;;25.62;46.82;100460.31;4454704;32;20045;-68
2021/08/15 02:37:47;;;;;;;18.48;7.82;;;;;;;25.61;46.50;100455.88;4450466;32;20129;-68
2021/08/15 02:40:14;;;;;;;22.37;9.10;;;;;;;25.78;46.32;100447.72;4454544;32;20076;-68
2021/08/15 02:42:42;;;;;;;23.05;8.82;;;;;;;25.71;46.32;100450.47;4453896;32;20097;-68
2021/08/15 02:45:09;;;;;;;20.42;8.32;;;;;;;25.51;46.31;100442.41;4450666;32;20103;-68
2021/08/15 02:47:35;;;;;;;18.50;8.20;;;;;;;25.60;45.78;100439.91;4451009;32;20068;-68
2021/08/15 02:50:01;;;;;;;15.43;7.90;;;;;;;25.50;46.24;100438.78;4449439;32;20449;-68
2021/08/15 02:52:27;;;;;;;20.98;8.07;;;;;;;25.60;46.30;100430.47;4448976;32;20041;-68
2021/08/15 02:54:53;;;;;;;22.75;9.20;;;;;;;25.54;46.49;100426.91;4453055;32;20106;-68
2021/08/15 02:57:18;;;;;;;17.35;8.00;;;;;;;25.60;46.78;100424.72;4450824;32;20544;-68
2021/08/15 02:59:44;;;;;;;18.33;8.70;;;;;;;25.66;46.66;100423.31;4450531;32;20473;-68
2021/08/15 03:02:14;;;;;;;20.33;8.82;;;;;;;25.70;46.48;100423.75;4451586;32;20088;-68
2021/08/15 03:04:41;;;;;;;16.40;8.80;;;;;;;25.80;46.34;100416.22;4454687;32;20072;-68
2021/08/15 03:07:06;;;;;;;19.73;8.82;;;;;;;25.69;46.64;100415.66;4451057;32;20064;-68
2021/08/15 03:09:33;;;;;;;17.50;9.05;;;;;;;25.74;46.44;100411.91;4452666;32;20095;-68
2021/08/15 03:11:58;;;;;;;15.68;8.90;;;;;;;25.76;46.14;100415.00;4452278;32;20041;-68
2021/08/15 03:14:24;;;;;;;18.65;9.30;;;;;;;25.71;46.36;100416.66;4458101;32;20445;-68
2021/08/15 03:16:50;;;;;;;19.10;8.57;;;;;;;25.90;46.25;100416.56;4450841;32;20099;-68
2021/08/15 03:19:16;;;;;;;18.45;8.48;;;;;;;25.90;46.23;100410.81;4450101;32;20366;-68
2021/08/15 03:21:42;;;;;;;19.37;9.13;;;;;;;25.87;46.22;100403.25;4449101;32;20095;-68
2021/08/15 03:24:07;;;;;;;19.87;8.75;;;;;;;25.91;46.18;100404.50;4452907;32;20064;-68
2021/08/15 03:26:36;;;;;;;16.17;8.10;;;;;;;26.04;45.73;100401.62;4451820;32;20420;-68
2021/08/15 03:29:01;;;;;;;17.75;8.60;;;;;;;25.95;45.68;100398.41;4453910;32;20553;-68
2021/08/15 03:31:27;;;;;;;18.70;8.85;;;;;;;25.96;45.74;100394.97;4449946;32;20060;-68
2021/08/15 03:33:52;;;;;;;17.12;8.00;;;;;;;25.96;45.57;100391.28;4454922;32;20105;-68
2021/08/15 03:36:18;;;;;;;20.30;8.20;;;;;;;26.00;45.64;100388.88;4455760;32;20444;-68
2021/08/15 03:38:45;;;;;;;15.50;8.48;;;;;;;26.13;45.32;100378.12;4451775;32;20097;-68
2021/08/15 03:41:10;;;;;;;18.05;8.25;;;;;;;26.09;45.26;100379.78;4450426;32;20041;-68
2021/08/15 03:43:36;;;;;;;15.95;8.10;;;;;;;26.11;45.62;100368.47;4452209;32;20447;-68
2021/08/15 03:46:02;;;;;;;18.02;8.15;;;;;;;26.15;45.76;100363.13;4450732;32;20077;-68
2021/08/15 03:48:28;;;;;;;20.92;8.52;;;;;;;26.08;45.73;100367.47;4450620;32;20102;-68
2021/08/15 03:50:54;;;;;;;16.73;8.00;;;;;;;26.07;45.70;100363.03;4451066;32;20100;-68
2021/08/15 03:53:22;;;;;;;18.40;8.55;;;;;;;26.11;45.83;100362.72;4450860;32;20417;-68
2021/08/15 03:55:48;;;;;;;15.15;8.48;;;;;;;26.06;45.82;100355.72;4449902;32;20069;-68
2021/08/15 03:58:14;;;;;;;17.77;7.93;;;;;;;26.10;45.57;100353.28;4449370;32;20044;-68
2021/08/15 04:00:40;;;;;;;17.85;8.00;;;;;;;26.05;45.64;100351.25;4449498;32;20016;-68
2021/08/15 04:03:08;;;;;;;14.25;7.43;;;;;;;26.03;45.68;100350.28;4451158;32;20101;-68
2021/08/15 04:05:34;;;;;;;14.38;7.70;;;;;;;26.26;45.35;100343.47;4451117;32;20120;-68
2021/08/15 04:08:01;;;;;;;16.70;7.78;;;;;;;26.01;45.99;100342.19;4448628;32;20119;-68
2021/08/15 04:10:27;;;;;;;19.65;9.02;;;;;;;25.96;46.02;100345.94;4447740;32;20519;-68
2021/08/15 04:12:52;;;;;;;16.80;8.57;;;;;;;25.76;46.49;100342.94;4451731;32;20076;-68
2021/08/15 04:15:19;;;;;;;14.43;8.75;;;;;;;25.65;47.00;100341.06;4449051;32;20481;-68
2021/08/15 04:17:44;;;;;;;16.25;9.15;;;;;;;25.60;46.99;100333.28;4449645;32;20068;-68
2021/08/15 04:20:11;;;;;;;15.82;8.20;;;;;;;25.58;47.18;100338.81;4453058;32;20041;-68
2021/08/15 04:22:37;;;;;;;16.10;7.62;;;;;;;25.59;47.49;100334.63;4452805;32;20084;-68
2021/08/15 04:25:02;;;;;;;16.25;8.35;;;;;;;25.60;47.28;100339.03;4448773;32;20072;-68
2021/08/15 04:27:28;;;;;;;18.05;8.63;;;;;;;25.79;46.92;100336.84;4453258;32;20041;-68
2021/08/15 04:29:54;;;;;;;15.23;8.15;;;;;;;25.81;46.80;100337.06;4453425;32;20304;-68
2021/08/15 04:32:20;;;;;;;17.45;7.45;;;;;;;25.93;46.74;100335.53;4449883;32;20489;-68
2021/08/15 04:34:46;;;;;;;14.57;8.18;;;;;;;25.93;46.27;100340.50;4453731;32;20049;-68
2021/08/15 04:37:13;;;;;;;12.77;6.97;;;;;;;25.89;46.28;100337.19;4448227;32;20091;-68
2021/08/15 04:39:39;;;;;;;15.13;7.57;;;;;;;25.95;46.61;100335.72;4448910;32;20502;-68
2021/08/15 04:42:05;;;;;;;15.18;7.57;;;;;;;26.08;46.17;100344.38;4450830;32;20108;-68
2021/08/15 04:44:30;;;;;;;16.00;7.68;;;;;;;26.19;46.21;100346.25;4450971;32;20369;-68
2021/08/15 04:46:56;;;;;;;13.43;7.57;;;;;;;26.10;46.26;100344.63;4453982;32;20472;-68
2021/08/15 04:49:22;;;;;;;13.73;7.43;;;;;;;26.11;46.17;100339.63;4451778;32;20073;-68
2021/08/15 04:51:48;;;;;;;15.73;6.72;;;;;;;26.25;45.96;100335.37;4453254;32;20109;-68
2021/08/15 04:54:14;;;;;;;15.80;7.35;;;;;;;26.24;46.09;100323.09;4451818;32;20063;-68
2021/08/15 04:56:40;;;;;;;13.75;6.40;;;;;;;26.28;46.10;100328.50;4449751;32;20088;-68
2021/08/15 04:59:05;;;;;;;13.57;7.43;;;;;;;26.34;45.87;100332.03;4450050;32;20138;-68
2021/08/15 05:01:31;;;;;;;16.85;7.12;;;;;;;26.37;46.03;100328.03;4452709;32;20091;-68
2021/08/15 05:03:57;;;;;;;13.70;6.78;;;;;;;26.43;46.03;100343.91;4452768;32;20064;-68
2021/08/15 05:06:23;;;;;;;14.85;7.30;;;;;;;26.48;46.08;100340.09;4449593;32;20037;-68
2021/08/15 05:08:49;;;;;;;15.98;7.28;;;;;;;26.58;45.78;100340.41;4450088;32;21399;-68
2021/08/15 05:11:16;;;;;;;11.68;6.25;;;;;;;26.66;45.56;100335.56;4452949;32;20067;-68
2021/08/15 05:13:44;;;;;;;11.65;6.15;;;;;;;26.66;45.89;100329.78;4450866;32;20095;-68
2021/08/15 05:16:10;;;;;;;12.70;6.90;;;;;;;26.76;45.53;100331.63;4450862;32;20076;-68
2021/08/15 05:18:36;;;;;;;11.15;6.20;;;;;;;26.71;45.81;100332.53;4452744;32;20149;-68
2021/08/15 05:21:02;;;;;;;11.50;6.10;;;;;;;26.79;45.93;100329.72;4449148;32;20076;-68
2021/08/15 05:23:28;;;;;;;14.35;5.68;;;;;;;26.76;45.98;100327.97;4452279;32;20558;-68
2021/08/15 05:25:53;;;;;;;29.50;7.50;;;;;;;26.77;45.98;100323.72;4453442;32;20106;-68
2021/08/15 05:28:19;;;;;;;12.00;5.70;;;;;;;26.89;45.70;100328.69;4449597;32;20073;-68
2021/08/15 05:30:45;;;;;;;10.63;5.30;;;;;;;26.93;45.62;100323.31;4449147;32;20037;-68
2021/08/15 05:33:11;;;;;;;10.13;5.50;;;;;;;27.02;45.53;100324.94;4454503;32;20063;-68
2021/08/15 05:35:36;;;;;;;11.77;5.20;;;;;;;27.03;45.31;100318.59;4446839;32;20573;-68
2021/08/15 05:38:02;;;;;;;10.25;4.80;;;;;;;27.04;45.27;100325.94;4453294;32;20042;-68
2021/08/15 05:40:28;;;;;;;7.62;4.32;;;;;;;27.06;45.18;100331.16;4454657;32;20067;-68
2021/08/15 05:42:54;;;;;;;7.10;3.50;;;;;;;27.06;45.25;100334.81;4442956;32;20085;-68
2021/08/15 05:45:20;;;;;;;7.07;3.37;;;;;;;27.08;45.19;100337.91;4454599;32;20402;-68
2021/08/15 05:47:45;;;;;;;6.97;3.65;;;;;;;27.20;45.01;100339.19;4451919;32;20044;-68
2021/08/15 05:50:11;;;;;;;8.55;3.28;;;;;;;27.28;44.99;100332.72;4452976;32;20029;-68
2021/08/15 05:52:39;;;;;;;8.07;3.87;;;;;;;27.07;44.69;100330.59;4452899;32;20076;-68
2021/08/15 05:55:07;;;;;;;8.20;3.80;;;;;;;27.28;44.78;100342.19;4454119;32;20366;-68
2021/08/15 05:57:33;;;;;;;6.32;3.65;;;;;;;27.55;44.64;100339.91;4452140;32;20532;-68
2021/08/15 05:59:59;;;;;;;6.75;3.45;;;;;;;27.31;44.76;100334.50;4450629;32;20102;-68
2021/08/15 06:02:24;;;;;;;6.62;2.90;;;;;;;27.26;44.86;100339.06;4456076;32;20037;-68
2021/08/15 06:04:50;;;;;;;6.82;3.12;;;;;;;27.35;44.44;100340.69;4453729;32;20069;-68
2021/08/15 06:07:15;;;;;;;5.68;2.80;;;;;;;27.47;44.62;100344.81;4450280;32;20047;-68
2021/08/15 06:09:41;;;;;;;5.20;2.62;;;;;;;27.36;44.67;100345.13;4440622;32;20437;-68
2021/08/15 06:12:07;;;;;;;5.30;2.35;;;;;;;27.47;44.44;100339.84;4454070;32;20097;-68
2021/08/15 06:14:33;;;;;;;3.97;2.45;;;;;;;27.57;44.13;100337.97;4452084;32;20779;-68
2021/08/15 06:16:59;;;;;;;6.28;2.55;;;;;;;27.43;44.25;100335.75;4452239;32;20385;-68
2021/08/15 06:19:25;;;;;;;8.57;2.92;;;;;;;27.65;43.99;100338.03;4452328;32;20045;-68
2021/08/15 06:21:51;;;;;;;5.35;2.65;;;;;;;27.49;44.22;100328.50;4453721;32;20037;-68
2021/08/15 06:24:17;;;;;;;4.10;2.58;;;;;;;27.51;44.17;100330.78;4453936;32;20091;-68
2021/08/15 06:26:42;;;;;;;4.70;2.70;;;;;;;27.31;44.42;100326.59;4453014;32;20087;-68
2021/08/15 06:29:08;;;;;;;5.55;2.12;;;;;;;27.31;44.48;100325.81;4451935;32;20472;-69
2021/08/15 06:31:34;;;;;;;4.87;2.00;;;;;;;27.15;44.73;100324.87;4453334;32;20477;-68
2021/08/15 06:33:59;;;;;;;3.80;2.28;;;;;;;27.08;44.82;100331.34;4454432;32;20343;-68
2021/08/15 06:36:26;;;;;;;4.45;2.08;;;;;;;27.17;44.73;100328.75;4451848;32;20063;-68
2021/08/15 06:38:52;;;;;;;4.10;2.00;;;;;;;27.08;44.84;100328.47;4451757;32;20385;-68
2021/08/15 06:41:18;;;;;;;5.82;2.50;;;;;;;27.28;44.49;100336.41;4448707;32;20512;-68
2021/08/15 06:43:44;;;;;;;5.57;2.47;;;;;;;27.28;44.63;100333.50;4449797;32;20041;-68
2021/08/15 06:46:10;;;;;;;4.28;2.00;;;;;;;27.22;44.67;100333.59;4448302;32;20080;-68
2021/08/15 06:48:36;;;;;;;5.82;2.20;;;;;;;27.27;44.37;100337.72;4451687;32;20522;-68
2021/08/15 06:51:03;;;;;;;3.83;1.90;;;;;;;27.56;43.86;100339.31;4450212;32;20033;-68
2021/08/15 06:53:30;;;;;;;4.53;2.22;;;;;;;27.63;43.89;100341.50;4453370;32;20037;-68
2021/08/15 06:55:58;;;;;;;2.47;1.75;;;;;;;27.70;43.60;100328.44;4449926;32;20761;-68
2021/08/15 06:58:25;;;;;;;5.55;1.75;;;;;;;27.50;43.61;100335.81;4451657;32;20038;-68
2021/08/15 07:00:51;;;;;;;4.53;1.10;;;;;;;27.52;43.15;100338.13;4454251;32;20025;-68
2021/08/15 07:03:17;;;;;;;3.20;1.20;;;;;;;27.26;43.34;100326.72;4452860;32;20503;-68
2021/08/15 07:05:44;;;;;;;4.90;0.98;;;;;;;27.18;43.18;100335.28;4450090;32;20065;-68
2021/08/15 07:08:10;;;;;;;3.22;0.95;;;;;;;27.02;43.15;100337.28;4450711;32;20181;-68
2021/08/15 07:10:35;;;;;;;3.33;1.10;;;;;;;26.99;42.98;100335.50;4452255;32;20033;-68
2021/08/15 07:13:06;;;;;;;3.67;2.60;;;;;;;26.94;43.00;100324.09;4450069;32;20068;-68
2021/08/15 07:15:31;;;;;;;3.80;3.03;;;;;;;26.87;42.76;100336.34;4450460;32;20109;-68
2021/08/15 07:17:58;;;;;;;7.65;4.00;;;;;;;26.71;42.97;100329.63;4453076;32;20434;-68
2021/08/15 07:20:23;;;;;;;7.22;5.20;;;;;;;26.72;43.15;100328.28;4454923;32;20087;-68
2021/08/15 07:22:50;;;;;;;5.60;4.95;;;;;;;26.87;43.00;100327.66;4452133;32;20359;-68
2021/08/15 07:25:16;;;;;;;6.18;5.05;;;;;;;26.82;43.13;100331.50;4448927;32;20060;-68
2021/08/15 07:27:42;;;;;;;7.87;5.80;;;;;;;26.54;43.42;100329.22;4449256;32;20082;-68
2021/08/15 07:30:10;;;;;;;4.57;3.40;;;;;;;27.01;42.52;100326.28;4452137;32;20126;-68
2021/08/15 07:32:50;;;;;;;7.15;4.18;;;;;;;26.97;42.69;100322.97;4454134;32;20028;-68
2021/08/15 07:35:16;;;;;;;6.05;3.35;;;;;;;27.33;41.83;100320.25;4451780;32;20160;-68
2021/08/15 07:37:41;;;;;;;4.90;3.05;;;;;;;27.40;41.92;100329.00;4452835;32;20414;-68
2021/08/15 07:40:08;;;;;;;7.47;3.47;;;;;;;27.32;42.10;100336.03;4436392;32;20475;-68
2021/08/15 07:42:34;;;;;;;3.40;1.80;;;;;;;27.68;41.59;100329.00;4454112;32;20056;-68
2021/08/15 07:44:59;;;;;;;3.67;2.35;;;;;;;27.97;40.94;100333.47;4433811;32;20063;-68
2021/08/15 07:47:26;;;;;;;2.37;2.17;;;;;;;28.10;40.70;100336.22;4451448;32;20438;-68
2021/08/15 07:49:52;;;;;;;5.22;2.60;;;;;;;28.59;39.81;100330.31;4448568;32;20056;-68
2021/08/15 07:52:18;;;;;;;2.47;1.58;;;;;;;28.19;39.72;100326.25;4451011;32;20064;-68
2021/08/15 07:54:43;;;;;;;2.30;1.40;;;;;;;27.98;39.63;100326.31;4450604;32;20576;-68
2021/08/15 07:57:09;;;;;;;3.67;1.60;;;;;;;27.74;39.98;100320.19;4447393;32;20116;-68
2021/08/15 07:59:34;;;;;;;3.05;1.62;;;;;;;27.67;40.19;100318.00;4450207;32;20096;-68
2021/08/15 08:02:00;;;;;;;3.70;2.72;;;;;;;27.23;40.99;100314.94;4453743;32;21241;-68
2021/08/15 08:04:26;;;;;;;4.65;2.95;;;;;;;27.34;40.73;100311.03;4454515;32;20085;-68
2021/08/15 08:06:52;;;;;;;5.35;2.92;;;;;;;27.81;40.12;100307.87;4451164;32;20063;-68
2021/08/15 08:09:18;;;;;;;4.12;3.00;;;;;;;28.08;39.58;100298.44;4437123;32;20480;-68
2021/08/15 08:11:44;;;;;;;4.20;2.70;;;;;;;27.83;39.83;100294.41;4450701;32;20074;-68
2021/08/15 08:14:10;;;;;;;5.90;3.37;;;;;;;27.80;39.74;100303.44;4452600;32;20488;-68
2021/08/15 08:16:36;;;;;;;4.55;3.08;;;;;;;27.58;40.10;100304.06;4451385;32;20060;-68
2021/08/15 08:19:01;;;;;;;4.45;2.92;;;;;;;27.51;40.30;100294.00;4451355;32;20422;-68
2021/08/15 08:21:27;;;;;;;6.03;4.03;;;;;;;28.03;39.74;100296.47;4452964;32;20458;-68
2021/08/15 08:23:52;;;;;;;3.75;2.83;;;;;;;28.60;38.71;100300.75;4451635;32;20060;-68
2021/08/15 08:26:18;;;;;;;5.57;4.85;;;;;;;28.99;37.88;100293.69;4454421;32;20541;-68
2021/08/15 08:28:44;;;;;;;6.72;4.50;;;;;;;28.84;37.55;100294.44;4448765;32;20067;-68
2021/08/15 08:31:09;;;;;;;7.12;4.95;;;;;;;28.96;37.53;100289.84;4450900;32;20037;-68
2021/08/15 08:33:35;;;;;;;6.70;4.30;;;;;;;28.78;37.60;100298.91;4450319;32;20089;-68
2021/08/15 08:36:01;;;;;;;5.22;4.53;;;;;;;28.53;38.22;100298.63;4454945;32;20767;-68
2021/08/15 08:38:27;;;;;;;7.15;4.82;;;;;;;28.54;38.17;100282.81;4434955;32;20082;-68
2021/08/15 08:40:54;;;;;;;4.80;3.90;;;;;;;28.64;38.10;100278.00;4450990;32;20542;-68
2021/08/15 08:43:20;;;;;;;4.87;4.37;;;;;;;28.57;38.30;100278.00;4451437;32;20029;-68
2021/08/15 08:45:46;;;;;;;6.60;3.92;;;;;;;28.71;38.01;100280.16;4455303;32;20111;-68
2021/08/15 08:48:14;;;;;;;5.68;4.62;;;;;;;28.14;38.31;100286.69;4450877;32;20422;-68
2021/08/15 08:50:41;;;;;;;6.60;5.10;;;;;;;27.81;38.65;100279.75;4451083;32;20033;-68
2021/08/15 08:53:07;;;;;;;6.65;4.93;;;;;;;27.87;38.62;100285.38;4452474;32;20060;-68
2021/08/15 08:55:33;;;;;;;5.80;4.75;;;;;;;27.87;38.68;100291.94;4450193;32;20101;-68
2021/08/15 08:57:59;;;;;;;4.45;3.70;;;;;;;27.77;39.08;100287.22;4452411;32;20072;-68
2021/08/15 09:00:25;;;;;;;4.72;3.65;;;;;;;27.69;39.32;100280.63;4449724;32;20021;-68
2021/08/15 09:02:57;;;;;;;4.65;2.90;;;;;;;27.84;39.14;100295.16;4449194;32;20836;-68
2021/08/15 09:05:33;;;;;;;6.18;2.80;;;;;;;28.01;38.26;100275.25;4451137;32;20059;-68
2021/08/15 09:07:59;;;;;;;4.70;2.22;;;;;;;28.11;38.03;100276.25;4452173;32;20063;-68
2021/08/15 09:10:31;;;;;;;2.90;1.77;;;;;;;28.21;37.60;100272.25;4448933;32;20024;-68
2021/08/15 09:13:02;;;;;;;1.98;1.10;;;;;;;28.29;36.68;100273.03;4454019;32;20025;-68
2021/08/15 09:15:30;;;;;;;3.87;2.35;;;;;;;28.13;36.17;100262.00;4439912;32;20048;-68
2021/08/15 09:17:57;;;;;;;7.55;2.60;;;;;;;27.58;37.82;100270.13;4454698;32;20101;-68
2021/08/15 09:20:36;;;;;;;3.42;1.73;;;;;;;27.20;38.81;100263.28;4452205;32;20055;-68
2021/08/15 09:26:19;;;;;;;3.45;1.75;;;;;;;28.36;37.22;100260.72;3978636;32;15150607;-68
2021/08/15 09:28:49;;;;;;;4.00;1.40;;;;;;;28.36;37.22;100260.72;4433356;32;20044;-68
2021/08/15 09:31:28;;;;;;;6.15;1.42;;;;;;;27.62;38.14;100264.00;4437045;32;20089;-68
2021/08/15 09:33:57;;;;;;;4.05;1.37;;;;;;;27.28;38.15;100246.81;4433313;32;20092;-68
2021/08/15 09:36:43;;;;;;;5.10;1.50;;;;;;;27.29;37.90;100244.69;4433896;32;20041;-68
2021/08/15 09:39:11;;;;;;;3.92;1.40;;;;;;;28.09;36.69;100238.44;4436978;32;20419;-68
2021/08/15 09:41:48;;;;;;;6.78;1.60;;;;;;;27.92;36.61;100250.50;4435275;32;20167;-68
2021/08/15 09:44:25;;;;;;;6.18;1.25;;;;;;;28.29;35.71;100247.00;4432547;32;20030;-68
2021/08/15 09:52:13;;;;;;;7.93;1.67;;;;;;;28.60;34.38;100274.69;3985556;32;15035256;-68
2021/08/15 09:54:40;;;;;;;6.32;1.40;;;;;;;28.60;34.38;100274.69;4438014;32;20037;-67
2021/08/15 09:57:09;;;;;;;9.82;1.40;;;;;;;28.22;34.82;100265.09;4440736;32;20048;-67
2021/08/15 09:59:38;;;;;;;6.60;1.48;;;;;;;28.31;34.20;100261.66;4436000;32;20141;-67
2021/08/15 10:02:05;;;;;;;4.75;1.42;;;;;;;28.32;34.39;100269.00;4440776;32;20105;-67
2021/08/15 10:04:31;;;;;;;6.53;1.85;;;;;;;28.83;33.52;100275.53;4440444;32;20025;-67
2021/08/15 10:06:58;;;;;;;4.50;1.48;;;;;;;28.94;32.99;100260.69;4436419;32;20063;-67
2021/08/15 10:09:25;;;;;;;5.43;1.60;;;;;;;28.78;33.09;100267.78;4437323;32;20036;-67
2021/08/15 10:11:52;;;;;;;4.32;1.50;;;;;;;28.38;33.71;100272.50;4433452;32;20078;-67
2021/08/15 10:14:19;;;;;;;6.10;1.73;;;;;;;28.67;33.35;100282.66;4435905;32;20410;-68
2021/08/15 10:22:21;;;;;;;3.95;1.17;;;;;;;29.87;31.32;100275.31;3984746;32;15022903;-69
2021/08/15 10:24:49;;;;;;;9.38;1.73;;;;;;;29.87;31.32;100275.31;4432820;32;20425;-69
2021/08/15 10:27:42;;;;;;;6.18;1.62;;;;;;;29.48;31.62;100273.81;4432557;32;20030;-69
2021/08/15 10:35:43;;;;;;;8.73;2.65;;;;;;;30.46;29.18;100282.25;3997745;31;15016762;-68
2021/08/15 10:40:52;;;;;;;7.95;2.30;;;;;;;30.60;28.85;100275.63;4006492;31;15017431;-69
2021/08/15 10:46:15;;;;;;;7.12;2.12;;;;;;;30.95;27.73;100275.81;3986950;32;15024916;-69
2021/08/15 10:57:04;;;;;;;6.20;2.55;;;;;;;32.10;26.78;100247.34;3971650;32;15028761;-67
2021/08/15 11:02:11;;;;;;;5.35;2.17;;;;;;;31.97;26.95;100250.59;3987214;32;15023219;-67
2021/08/15 11:04:39;;;;;;;6.78;2.17;;;;;;;31.97;26.95;100250.59;4432930;32;20053;-67
2021/08/15 11:07:06;;;;;;;6.05;1.90;;;;;;;30.94;27.53;100234.34;4434331;32;20846;-69
2021/08/15 11:09:53;;;;;;;7.80;2.28;;;;;;;30.94;27.90;100242.28;4429387;32;20056;-69
2021/08/15 11:12:19;;;;;;;5.18;2.33;;;;;;;30.75;28.19;100248.62;4433649;32;20033;-69
2021/08/15 11:17:31;;;;;;;8.23;2.30;;;;;;;30.41;29.42;100260.03;3981308;32;15027330;-68
2021/08/15 11:20:36;;;;;;;11.50;2.17;;;;;;;30.41;29.42;100260.03;4433718;32;20362;-68
2021/08/15 11:23:08;;;;;;;7.60;2.35;;;;;;;29.79;29.87;100243.41;4431461;32;20136;-68
2021/08/15 11:25:35;;;;;;;6.53;2.55;;;;;;;29.67;30.32;100238.62;4434869;32;20033;-69
2021/08/15 11:28:01;;;;;;;11.73;3.17;;;;;;;29.17;30.63;100254.16;4432961;32;20064;-68
2021/08/15 11:30:26;;;;;;;9.82;2.97;;;;;;;28.59;31.41;100261.59;4432995;32;20379;-68
2021/08/15 11:32:56;;;;;;;8.15;2.87;;;;;;;28.54;31.62;100247.28;4435615;32;20445;-68
2021/08/15 11:35:22;;;;;;;10.93;2.72;;;;;;;29.11;30.93;100244.88;4432643;32;20093;-68
2021/08/15 11:37:52;;;;;;;11.65;3.03;;;;;;;29.30;30.58;100239.44;4436600;32;20094;-68
2021/08/15 11:43:05;;;;;;;9.55;2.62;;;;;;;31.06;28.55;100235.41;3978199;32;15709860;-69
2021/08/15 11:45:33;;;;;;;8.60;2.42;;;;;;;31.06;28.55;100235.41;4449683;32;20109;-69
2021/08/15 11:48:17;;;;;;;8.45;3.00;;;;;;;30.76;28.36;100227.69;4452017;32;20067;-69
2021/08/15 11:56:08;;;;;;;8.38;2.30;;;;;;;31.89;27.26;100234.59;3981517;32;15025125;-68
2021/08/15 11:58:34;;;;;;;8.63;2.35;;;;;;;31.89;27.26;100234.59;4432309;32;20084;-68
2021/08/15 12:01:07;;;;;;;8.55;2.25;;;;;;;31.22;27.97;100224.41;4433514;32;20104;-68
2021/08/15 12:03:33;;;;;;;9.27;2.85;;;;;;;31.15;28.15;100214.41;4434829;32;20358;-68
2021/08/15 12:06:05;;;;;;;12.48;2.53;;;;;;;30.73;28.72;100207.72;4436720;32;20385;-68